EWG9E EDDP-EDDH
Flight info
| Callsign | EWG9E |
|---|---|
| Flight time | 0h 39m |
| Altitude | 28000 |
| Route | PENEM1N PENEM Y233 ODLUN Z207 MAG M736 SOGMA M748 ERNUD M726 BKD L619 BUMIL M748 RARUP RARUP3P |
| Aircraft | A20N/M-SDE2E3FGHIRWXY/LB1 |
Departure
| Time | 2026-04-23 18:43 |
|---|---|
| Airport | Leipzig/Halle Airport (EDDP) |
Arrival
| Time | 2026-04-23 19:22 |
|---|---|
| Airport | Hamburg Helmut Schmidt Airport (EDDH) |
| Time | Latitude | Longitude | Altitude | Speed | Heading |
|---|---|---|---|---|---|
| 2026-04-23 18:25 | 51.41881 | 12.22186 | 446 ft | 0 kts | 15° |
| 2026-04-23 18:31 | 51.41880 | 12.22185 | 434 ft | 0 kts | 15° |
| 2026-04-23 18:31 | 51.41876 | 12.22183 | 446 ft | 2 kts | 15° |
| 2026-04-23 18:31 | 51.41862 | 12.22177 | 447 ft | 2 kts | 16° |
| 2026-04-23 18:32 | 51.41847 | 12.22170 | 448 ft | 2 kts | 16° |
| 2026-04-23 18:32 | 51.41833 | 12.22164 | 448 ft | 2 kts | 16° |
| 2026-04-23 18:32 | 51.41817 | 12.22156 | 448 ft | 2 kts | 25° |
| 2026-04-23 18:32 | 51.41804 | 12.22144 | 448 ft | 2 kts | 43° |
| 2026-04-23 18:33 | 51.41794 | 12.22126 | 448 ft | 2 kts | 70° |
| 2026-04-23 18:33 | 51.41792 | 12.22111 | 448 ft | 0 kts | 99° |
| 2026-04-23 18:34 | 51.41791 | 12.22115 | 448 ft | 2 kts | 107° |
| 2026-04-23 18:34 | 51.41773 | 12.22215 | 450 ft | 15 kts | 105° |
| 2026-04-23 18:34 | 51.41744 | 12.22391 | 455 ft | 17 kts | 105° |
| 2026-04-23 18:35 | 51.41713 | 12.22575 | 459 ft | 17 kts | 105° |
| 2026-04-23 18:35 | 51.41681 | 12.22758 | 463 ft | 17 kts | 107° |
| 2026-04-23 18:35 | 51.41645 | 12.22956 | 461 ft | 20 kts | 104° |
| 2026-04-23 18:35 | 51.41612 | 12.23181 | 464 ft | 22 kts | 102° |
| 2026-04-23 18:36 | 51.41605 | 12.23436 | 463 ft | 24 kts | 86° |
| 2026-04-23 18:36 | 51.41616 | 12.23703 | 467 ft | 24 kts | 89° |
| 2026-04-23 18:36 | 51.41627 | 12.23973 | 469 ft | 25 kts | 84° |
| 2026-04-23 18:36 | 51.41643 | 12.24241 | 475 ft | 24 kts | 85° |
| 2026-04-23 18:37 | 51.41655 | 12.24500 | 473 ft | 19 kts | 85° |
| 2026-04-23 18:37 | 51.41715 | 12.24618 | 476 ft | 15 kts | 9° |
| 2026-04-23 18:37 | 51.41806 | 12.24653 | 481 ft | 13 kts | 14° |
| 2026-04-23 18:37 | 51.41885 | 12.24684 | 482 ft | 11 kts | 13° |
| 2026-04-23 18:38 | 51.41961 | 12.24713 | 485 ft | 11 kts | 13° |
| 2026-04-23 18:38 | 51.42060 | 12.24751 | 489 ft | 19 kts | 13° |
| 2026-04-23 18:38 | 51.42207 | 12.24806 | 477 ft | 24 kts | 13° |
| 2026-04-23 18:38 | 51.42385 | 12.24874 | 475 ft | 29 kts | 14° |
| 2026-04-23 18:39 | 51.42594 | 12.24955 | 466 ft | 33 kts | 13° |
| 2026-04-23 18:39 | 51.42822 | 12.25042 | 452 ft | 34 kts | 16° |
| 2026-04-23 18:39 | 51.42958 | 12.25099 | 449 ft | 17 kts | 19° |
| 2026-04-23 18:39 | 51.42985 | 12.25233 | 450 ft | 14 kts | 85° |
| 2026-04-23 18:40 | 51.42993 | 12.25398 | 453 ft | 15 kts | 85° |
| 2026-04-23 18:40 | 51.42999 | 12.25582 | 452 ft | 19 kts | 89° |
| 2026-04-23 18:40 | 51.43011 | 12.25828 | 453 ft | 25 kts | 85° |
| 2026-04-23 18:40 | 51.43026 | 12.26148 | 452 ft | 32 kts | 87° |
| 2026-04-23 18:41 | 51.43044 | 12.26504 | 454 ft | 32 kts | 86° |
| 2026-04-23 18:41 | 51.43102 | 12.26749 | 456 ft | 19 kts | 4° |
| 2026-04-23 18:41 | 51.43230 | 12.26733 | 456 ft | 19 kts | 354° |
| 2026-04-23 18:41 | 51.43349 | 12.26632 | 453 ft | 17 kts | 310° |
| 2026-04-23 18:42 | 51.43358 | 12.26540 | 453 ft | 0 kts | 264° |
| 2026-04-23 18:42 | 51.43352 | 12.26427 | 453 ft | 38 kts | 266° |
| 2026-04-23 18:42 | 51.43313 | 12.25627 | 453 ft | 102 kts | 265° |
| 2026-04-23 18:43 | 51.43244 | 12.24230 | 446 ft | 149 kts | 265° |
| 2026-04-23 18:43 | 51.43161 | 12.22530 | 890 ft | 152 kts | 272° |
| 2026-04-23 18:43 | 51.43358 | 12.20931 | 1573 ft | 144 kts | 297° |
| 2026-04-23 18:43 | 51.43969 | 12.19660 | 2164 ft | 145 kts | 318° |
| 2026-04-23 18:44 | 51.44728 | 12.18599 | 2781 ft | 145 kts | 321° |
| 2026-04-23 18:44 | 51.45536 | 12.17604 | 3333 ft | 151 kts | 324° |
| 2026-04-23 18:44 | 51.46435 | 12.16630 | 3896 ft | 161 kts | 328° |
| 2026-04-23 18:44 | 51.47426 | 12.15681 | 4522 ft | 172 kts | 330° |
| 2026-04-23 18:45 | 51.48511 | 12.14643 | 5036 ft | 191 kts | 328° |
| 2026-04-23 18:45 | 51.49630 | 12.13294 | 5490 ft | 212 kts | 321° |
| 2026-04-23 18:45 | 51.50823 | 12.11682 | 6007 ft | 232 kts | 320° |
| 2026-04-23 18:45 | 51.52041 | 12.09946 | 6775 ft | 236 kts | 320° |
| 2026-04-23 18:46 | 51.53487 | 12.08456 | 7092 ft | 256 kts | 334° |
| 2026-04-23 18:46 | 51.54548 | 12.07594 | 7172 ft | 258 kts | 334° |
| 2026-04-23 18:46 | 51.56153 | 12.06311 | 7209 ft | 258 kts | 334° |
| 2026-04-23 18:46 | 51.57766 | 12.05044 | 7214 ft | 258 kts | 335° |
| 2026-04-23 18:47 | 51.59905 | 12.03383 | 7211 ft | 257 kts | 335° |
| 2026-04-23 18:47 | 51.61521 | 12.02133 | 7213 ft | 258 kts | 335° |
| 2026-04-23 18:47 | 51.62596 | 12.01302 | 7212 ft | 257 kts | 335° |
| 2026-04-23 18:47 | 51.64220 | 12.00046 | 7263 ft | 260 kts | 335° |
| 2026-04-23 18:48 | 51.65855 | 11.98779 | 7748 ft | 262 kts | 335° |
| 2026-04-23 18:48 | 51.67492 | 11.97508 | 8786 ft | 260 kts | 335° |
| 2026-04-23 18:48 | 51.69127 | 11.96237 | 9781 ft | 263 kts | 336° |
| 2026-04-23 18:48 | 51.70790 | 11.94946 | 10603 ft | 271 kts | 336° |
| 2026-04-23 18:49 | 51.72563 | 11.93572 | 10971 ft | 294 kts | 336° |
| 2026-04-23 18:49 | 51.74484 | 11.92082 | 11302 ft | 315 kts | 336° |
| 2026-04-23 18:49 | 51.76492 | 11.90518 | 12031 ft | 322 kts | 336° |
| 2026-04-23 18:49 | 51.78525 | 11.88931 | 12852 ft | 326 kts | 335° |
| 2026-04-23 18:50 | 51.79882 | 11.87870 | 13388 ft | 330 kts | 335° |
| 2026-04-23 18:50 | 51.82675 | 11.85687 | 14405 ft | 336 kts | 335° |
| 2026-04-23 18:50 | 51.84812 | 11.84211 | 15112 ft | 339 kts | 342° |
| 2026-04-23 18:50 | 51.87090 | 11.83196 | 15829 ft | 342 kts | 349° |
| 2026-04-23 18:51 | 51.89444 | 11.82500 | 16546 ft | 345 kts | 350° |
| 2026-04-23 18:51 | 51.91819 | 11.81783 | 17256 ft | 349 kts | 350° |
| 2026-04-23 18:51 | 51.94220 | 11.81048 | 17967 ft | 353 kts | 350° |
| 2026-04-23 18:51 | 51.96647 | 11.80304 | 18637 ft | 357 kts | 350° |
| 2026-04-23 18:52 | 51.99122 | 11.79799 | 19235 ft | 360 kts | 357° |
| 2026-04-23 18:52 | 52.01642 | 11.79814 | 19843 ft | 363 kts | 4° |
| 2026-04-23 18:52 | 52.04138 | 11.80236 | 20435 ft | 366 kts | 6° |
| 2026-04-23 18:52 | 52.06682 | 11.80677 | 21038 ft | 369 kts | 6° |
| 2026-04-23 18:53 | 52.09249 | 11.81110 | 21625 ft | 373 kts | 6° |
| 2026-04-23 18:53 | 52.11842 | 11.81548 | 22201 ft | 376 kts | 6° |
| 2026-04-23 18:53 | 52.14461 | 11.81993 | 22781 ft | 380 kts | 6° |
| 2026-04-23 18:53 | 52.17116 | 11.82447 | 23356 ft | 383 kts | 6° |
| 2026-04-23 18:54 | 52.19780 | 11.82905 | 23904 ft | 386 kts | 6° |
| 2026-04-23 18:54 | 52.22440 | 11.83363 | 24373 ft | 389 kts | 6° |
| 2026-04-23 18:54 | 52.25142 | 11.83831 | 24866 ft | 392 kts | 6° |
| 2026-04-23 18:54 | 52.27867 | 11.84304 | 25335 ft | 394 kts | 6° |
| 2026-04-23 18:55 | 52.30608 | 11.84780 | 25804 ft | 397 kts | 6° |
| 2026-04-23 18:55 | 52.33364 | 11.85260 | 26248 ft | 400 kts | 6° |
| 2026-04-23 18:55 | 52.36116 | 11.85739 | 26689 ft | 402 kts | 6° |
| 2026-04-23 18:55 | 52.38935 | 11.86230 | 27125 ft | 405 kts | 6° |
| 2026-04-23 18:56 | 52.40804 | 11.86555 | 27401 ft | 407 kts | 6° |
| 2026-04-23 18:56 | 52.44587 | 11.87215 | 27949 ft | 410 kts | 6° |
| 2026-04-23 18:56 | 52.47440 | 11.87713 | 28160 ft | 413 kts | 6° |
| 2026-04-23 18:57 | 52.53112 | 11.88705 | 28202 ft | 412 kts | 6° |
| 2026-04-23 18:57 | 52.58831 | 11.89694 | 28201 ft | 412 kts | 4° |
| 2026-04-23 18:57 | 52.61697 | 11.89520 | 28203 ft | 413 kts | 352° |
| 2026-04-23 18:58 | 52.64476 | 11.88296 | 28201 ft | 415 kts | 340° |
| 2026-04-23 18:58 | 52.67037 | 11.86076 | 28197 ft | 418 kts | 327° |
| 2026-04-23 18:58 | 52.69367 | 11.83184 | 28006 ft | 420 kts | 324° |
| 2026-04-23 18:58 | 52.71682 | 11.80249 | 27562 ft | 418 kts | 324° |
| 2026-04-23 18:59 | 52.73977 | 11.77337 | 27072 ft | 413 kts | 324° |
| 2026-04-23 18:59 | 52.76247 | 11.74596 | 26604 ft | 406 kts | 327° |
| 2026-04-23 18:59 | 52.78531 | 11.71866 | 26125 ft | 403 kts | 326° |
| 2026-04-23 18:59 | 52.80780 | 11.69110 | 25607 ft | 401 kts | 325° |
| 2026-04-23 19:00 | 52.83020 | 11.66382 | 25161 ft | 398 kts | 326° |
| 2026-04-23 19:00 | 52.85246 | 11.63698 | 24733 ft | 394 kts | 326° |
| 2026-04-23 19:00 | 52.87462 | 11.61048 | 24320 ft | 391 kts | 326° |
| 2026-04-23 19:00 | 52.89663 | 11.58423 | 23905 ft | 389 kts | 326° |
| 2026-04-23 19:01 | 52.91850 | 11.55818 | 23439 ft | 386 kts | 326° |
| 2026-04-23 19:01 | 52.94020 | 11.53230 | 22999 ft | 382 kts | 326° |
| 2026-04-23 19:01 | 52.96172 | 11.50661 | 22599 ft | 380 kts | 326° |
| 2026-04-23 19:01 | 52.98288 | 11.48130 | 22206 ft | 379 kts | 326° |
| 2026-04-23 19:02 | 53.00419 | 11.45579 | 21826 ft | 377 kts | 326° |
| 2026-04-23 19:02 | 53.02545 | 11.43030 | 21443 ft | 375 kts | 326° |
| 2026-04-23 19:02 | 53.04650 | 11.40504 | 21053 ft | 372 kts | 326° |
| 2026-04-23 19:02 | 53.06741 | 11.37990 | 20687 ft | 370 kts | 326° |
| 2026-04-23 19:03 | 53.08823 | 11.35485 | 20320 ft | 368 kts | 326° |
| 2026-04-23 19:03 | 53.10889 | 11.32995 | 19960 ft | 366 kts | 325° |
| 2026-04-23 19:03 | 53.12948 | 11.30511 | 19605 ft | 365 kts | 325° |
| 2026-04-23 19:03 | 53.15002 | 11.28031 | 19251 ft | 363 kts | 325° |
| 2026-04-23 19:04 | 53.17047 | 11.25558 | 18899 ft | 361 kts | 325° |
| 2026-04-23 19:04 | 53.19074 | 11.23104 | 18554 ft | 360 kts | 325° |
| 2026-04-23 19:04 | 53.21093 | 11.20656 | 18160 ft | 358 kts | 325° |
| 2026-04-23 19:04 | 53.23103 | 11.18217 | 17767 ft | 356 kts | 325° |
| 2026-04-23 19:05 | 53.25103 | 11.15786 | 17372 ft | 354 kts | 325° |
| 2026-04-23 19:05 | 53.27065 | 11.13398 | 16997 ft | 353 kts | 325° |
| 2026-04-23 19:05 | 53.29048 | 11.10983 | 16613 ft | 351 kts | 325° |
| 2026-04-23 19:05 | 53.31009 | 11.08591 | 16235 ft | 346 kts | 325° |
| 2026-04-23 19:06 | 53.32935 | 11.06239 | 15804 ft | 341 kts | 325° |
| 2026-04-23 19:06 | 53.34837 | 11.03913 | 15373 ft | 336 kts | 325° |
| 2026-04-23 19:06 | 53.36717 | 11.01612 | 14932 ft | 332 kts | 325° |
| 2026-04-23 19:06 | 53.38576 | 10.99335 | 14508 ft | 329 kts | 325° |
| 2026-04-23 19:07 | 53.40412 | 10.97083 | 14090 ft | 325 kts | 325° |
| 2026-04-23 19:07 | 53.42226 | 10.94856 | 13626 ft | 322 kts | 325° |
| 2026-04-23 19:07 | 53.44024 | 10.92648 | 13183 ft | 317 kts | 325° |
| 2026-04-23 19:07 | 53.45789 | 10.90476 | 12875 ft | 310 kts | 325° |
| 2026-04-23 19:08 | 53.47476 | 10.88397 | 12624 ft | 301 kts | 325° |
| 2026-04-23 19:08 | 53.49145 | 10.86339 | 12369 ft | 293 kts | 325° |
| 2026-04-23 19:08 | 53.50763 | 10.84341 | 12109 ft | 285 kts | 325° |
| 2026-04-23 19:08 | 53.52342 | 10.82390 | 11864 ft | 278 kts | 325° |
| 2026-04-23 19:09 | 53.53886 | 10.80483 | 11531 ft | 274 kts | 325° |
| 2026-04-23 19:09 | 53.55413 | 10.78593 | 11190 ft | 271 kts | 325° |
| 2026-04-23 19:09 | 53.56927 | 10.76719 | 10849 ft | 270 kts | 325° |
| 2026-04-23 19:09 | 53.58284 | 10.74559 | 10524 ft | 271 kts | 306° |
| 2026-04-23 19:10 | 53.58966 | 10.71595 | 10176 ft | 277 kts | 285° |
| 2026-04-23 19:10 | 53.59302 | 10.68384 | 9764 ft | 278 kts | 284° |
| 2026-04-23 19:10 | 53.59626 | 10.65178 | 9341 ft | 277 kts | 284° |
| 2026-04-23 19:10 | 53.59945 | 10.61985 | 8924 ft | 276 kts | 284° |
| 2026-04-23 19:11 | 53.60264 | 10.58797 | 8521 ft | 275 kts | 284° |
| 2026-04-23 19:11 | 53.60579 | 10.55632 | 8118 ft | 274 kts | 284° |
| 2026-04-23 19:11 | 53.60892 | 10.52472 | 7724 ft | 273 kts | 284° |
| 2026-04-23 19:11 | 53.61200 | 10.49339 | 7368 ft | 270 kts | 284° |
| 2026-04-23 19:12 | 53.61395 | 10.47296 | 7219 ft | 265 kts | 284° |
| 2026-04-23 19:12 | 53.61771 | 10.43262 | 6728 ft | 257 kts | 284° |
| 2026-04-23 19:12 | 53.62033 | 10.40361 | 6379 ft | 249 kts | 284° |
| 2026-04-23 19:12 | 53.62292 | 10.37529 | 6033 ft | 239 kts | 287° |
| 2026-04-23 19:13 | 53.62954 | 10.35120 | 5703 ft | 221 kts | 316° |
| 2026-04-23 19:13 | 53.64222 | 10.33790 | 5384 ft | 216 kts | 346° |
| 2026-04-23 19:13 | 53.65711 | 10.33903 | 5095 ft | 219 kts | 18° |
| 2026-04-23 19:13 | 53.66973 | 10.35316 | 5008 ft | 221 kts | 34° |
| 2026-04-23 19:14 | 53.68173 | 10.36993 | 4995 ft | 224 kts | 34° |
| 2026-04-23 19:14 | 53.69364 | 10.38665 | 4982 ft | 223 kts | 34° |
| 2026-04-23 19:14 | 53.70567 | 10.40342 | 4982 ft | 224 kts | 34° |
| 2026-04-23 19:14 | 53.71766 | 10.42010 | 4980 ft | 223 kts | 34° |
| 2026-04-23 19:15 | 53.72961 | 10.43679 | 4977 ft | 223 kts | 34° |
| 2026-04-23 19:15 | 53.74257 | 10.45002 | 4978 ft | 215 kts | 10° |
| 2026-04-23 19:15 | 53.75717 | 10.44967 | 4864 ft | 212 kts | 340° |
| 2026-04-23 19:15 | 53.76916 | 10.43580 | 4445 ft | 213 kts | 309° |
| 2026-04-23 19:16 | 53.77456 | 10.41239 | 3945 ft | 222 kts | 278° |
| 2026-04-23 19:16 | 53.77467 | 10.38610 | 3457 ft | 225 kts | 274° |
| 2026-04-23 19:16 | 53.77444 | 10.35968 | 3087 ft | 222 kts | 274° |
| 2026-04-23 19:17 | 53.77384 | 10.30836 | 2995 ft | 220 kts | 272° |
| 2026-04-23 19:17 | 53.77087 | 10.28283 | 2998 ft | 226 kts | 253° |
| 2026-04-23 19:17 | 53.76317 | 10.25936 | 2995 ft | 232 kts | 240° |
| 2026-04-23 19:17 | 53.75319 | 10.23762 | 2994 ft | 237 kts | 236° |
| 2026-04-23 19:18 | 53.74272 | 10.21662 | 2997 ft | 235 kts | 237° |
| 2026-04-23 19:18 | 53.73262 | 10.19604 | 2992 ft | 219 kts | 236° |
| 2026-04-23 19:18 | 53.72309 | 10.17660 | 2834 ft | 213 kts | 237° |
| 2026-04-23 19:18 | 53.71371 | 10.15750 | 2546 ft | 206 kts | 237° |
| 2026-04-23 19:19 | 53.69698 | 10.12351 | 2012 ft | 174 kts | 239° |
| 2026-04-23 19:19 | 53.68924 | 10.10764 | 1765 ft | 176 kts | 238° |
| 2026-04-23 19:20 | 53.67520 | 10.07926 | 1312 ft | 140 kts | 239° |
| 2026-04-23 19:20 | 53.66921 | 10.06707 | 1127 ft | 135 kts | 239° |
| 2026-04-23 19:20 | 53.66329 | 10.05500 | 929 ft | 130 kts | 238° |
| 2026-04-23 19:20 | 53.65771 | 10.04367 | 754 ft | 126 kts | 237° |
| 2026-04-23 19:21 | 53.65221 | 10.03251 | 590 ft | 120 kts | 237° |
| 2026-04-23 19:21 | 53.64130 | 10.01032 | 262 ft | 130 kts | 235° |
| 2026-04-23 19:21 | 53.63545 | 9.99851 | 68 ft | 131 kts | 235° |
| 2026-04-23 19:22 | 53.63018 | 9.98762 | 49 ft | 103 kts | 233° |
| 2026-04-23 19:22 | 53.62656 | 9.98056 | 49 ft | 59 kts | 229° |
| 2026-04-23 19:22 | 53.62445 | 9.97842 | 49 ft | 2 kts | 130° |
| 2026-04-23 19:23 | 53.62433 | 9.97868 | 49 ft | 5 kts | 119° |
| 2026-04-23 19:23 | 53.62433 | 9.97952 | 50 ft | 9 kts | 81° |
| 2026-04-23 19:23 | 53.62457 | 9.98074 | 49 ft | 13 kts | 59° |
| 2026-04-23 19:24 | 53.62598 | 9.98366 | 50 ft | 19 kts | 50° |
| 2026-04-23 19:24 | 53.62690 | 9.98552 | 50 ft | 22 kts | 50° |
| 2026-04-23 19:24 | 53.62867 | 9.98911 | 50 ft | 17 kts | 50° |
| 2026-04-23 19:25 | 53.62998 | 9.99178 | 50 ft | 16 kts | 50° |
| 2026-04-23 19:25 | 53.63089 | 9.99377 | 50 ft | 0 kts | 54° |
| 2026-04-23 19:27 | 53.63147 | 9.99517 | 49 ft | 19 kts | 54° |
| 2026-04-23 19:27 | 53.63371 | 9.99949 | 50 ft | 9 kts | 50° |
| 2026-04-23 19:28 | 53.63367 | 10.00224 | 50 ft | 18 kts | 166° |
| 2026-04-23 19:28 | 53.63208 | 10.00341 | 50 ft | 0 kts | 87° |
| 2026-04-23 19:29 | 53.63208 | 10.00366 | 50 ft | 0 kts | 89° |